Union City, California
Current Conditions -  °F | °C
As of 6:54 AM on Monday 24 Nov 2014 (Local Time) from KHWD Reporting Station
Clear Clear  
Wind Chill: 44°   Ceiling: Unl
Heat Index: 47°   Visibility: 10mi
Dew Point: 38°   Wind: 6mph
Humidity: 71%   Direction: 40°NE
Pressure: 30.37"   Gusts: NA
Location:  37.59°N, 122.02°W
Report Text: KHWD 241454Z 04005KT 10SM CLR 08/03 A3037 RMK AO2 SLP292 T00830033 51016
Loading
Personal Weather Stations






























Interactive Weather Map New forecast layout! Learn more

10-Day Weather Forecast

Advertisements
Track Severe Weather on mobile